Ana Sayfa
METAR-TAF:

METAR-TAF

Havaalanları :

Ambato, Ekvador

Enlem: 01-12-43S, Boylam: 078-34-28W, yükseklik: 2591 m

Güncel hava durumu gözlemi

Rapor saat 21:00 UTC de 6 saat ve 31 dakika önce yapıldı.
Rüzgar güney/güneybatıdan 6 kt
Sıcaklık 24°C
Nem 44%
Basınç 1021 hPa
Görüş mesafesi 10 km veya daha fazla
2000 ft yükseklikte parçalı bulutlu
10000 ft yükseklikte parçalı çok bulutlu

METAR: SEAM 182100Z 21006KT 9999 SCT020 BKN100 24/11 Q1021

Saat: 22:31 (03:31 UTC)


TAF: eksik

4.000'den fazla havaalanı için hava durumu gözlemleri ve tahminleri (METAR ve TAF raporları).

Kullanılabilir istasyonlar harita üzerinde sarı ve kırmızı noktalarla gösterilir.

İstasyonun adını görmek için fareyi noktanın üzerinde gezdirin.

Sonrasında hava gözlem ve tahminlerini görmek için tıklayın.

Haritayı değiştirmek için: yaklaştırmak için siyah artı işaretli yeşil düğmeye ve uzaklaştırmak için de eksi işaretli düğmeye hızla tıklayın; bitişik haritalar için yeşil okları kullanın.


METAR-TAF: